sensor_id;sensor_type;location;lat;lon;timestamp;pressure;altitude;pressure_sealevel;temperature;humidity
62655;BME280;48717;55.556;37.816;2023-04-27T00:01:24;98705.75;;;9.44;79.67
62655;BME280;48717;55.556;37.816;2023-04-27T00:03:51;98697.94;;;9.37;80.58
62655;BME280;48717;55.556;37.816;2023-04-27T00:06:19;98708.56;;;9.31;80.77
62655;BME280;48717;55.556;37.816;2023-04-27T00:08:46;98680.69;;;9.18;81.25
62655;BME280;48717;55.556;37.816;2023-04-27T00:11:13;98711.16;;;9.34;80.98
62655;BME280;48717;55.556;37.816;2023-04-27T00:13:41;98711.06;;;9.40;80.77
62655;BME280;48717;55.556;37.816;2023-04-27T00:16:08;98700.41;;;9.48;80.30
62655;BME280;48717;55.556;37.816;2023-04-27T00:18:35;98709.94;;;9.57;79.31
62655;BME280;48717;55.556;37.816;2023-04-27T00:21:03;98693.38;;;9.50;79.31
62655;BME280;48717;55.556;37.816;2023-04-27T00:23:30;98710.63;;;9.70;78.84
62655;BME280;48717;55.556;37.816;2023-04-27T00:25:57;98720.19;;;9.76;78.31
62655;BME280;48717;55.556;37.816;2023-04-27T00:28:24;98716.66;;;9.77;77.95
62655;BME280;48717;55.556;37.816;2023-04-27T00:30:51;98687.88;;;9.66;77.34
62655;BME280;48717;55.556;37.816;2023-04-27T00:33:20;98706.03;;;9.83;76.73
62655;BME280;48717;55.556;37.816;2023-04-27T00:35:47;98662.47;;;9.63;76.15
62655;BME280;48717;55.556;37.816;2023-04-27T00:38:14;98698.00;;;9.91;75.65
62655;BME280;48717;55.556;37.816;2023-04-27T00:40:42;98707.63;;;9.93;75.72
62655;BME280;48717;55.556;37.816;2023-04-27T00:43:09;98705.81;;;9.96;76.31
62655;BME280;48717;55.556;37.816;2023-04-27T00:45:41;98701.72;;;9.79;76.53
62655;BME280;48717;55.556;37.816;2023-04-27T00:48:12;98713.25;;;9.69;77.60
62655;BME280;48717;55.556;37.816;2023-04-27T00:50:40;98710.31;;;9.29;79.23
62655;BME280;48717;55.556;37.816;2023-04-27T00:53:07;98719.03;;;9.34;80.01
62655;BME280;48717;55.556;37.816;2023-04-27T00:55:34;98676.34;;;9.15;79.92
62655;BME280;48717;55.556;37.816;2023-04-27T00:58:01;98710.22;;;9.38;79.79
62655;BME280;48717;55.556;37.816;2023-04-27T01:00:29;98713.59;;;9.47;79.42
62655;BME280;48717;55.556;37.816;2023-04-27T01:02:56;98713.59;;;9.47;79.19
62655;BME280;48717;55.556;37.816;2023-04-27T01:05:25;98717.06;;;9.49;79.16
62655;BME280;48717;55.556;37.816;2023-04-27T01:07:52;98689.25;;;9.32;79.66
62655;BME280;48717;55.556;37.816;2023-04-27T01:10:19;98678.84;;;9.23;79.50
62655;BME280;48717;55.556;37.816;2023-04-27T01:12:46;98723.25;;;9.48;79.58
62655;BME280;48717;55.556;37.816;2023-04-27T01:15:14;98699.69;;;9.38;79.20
62655;BME280;48717;55.556;37.816;2023-04-27T01:17:41;98715.34;;;9.48;79.67
62655;BME280;48717;55.556;37.816;2023-04-27T01:20:09;98712.66;;;9.49;78.78
62655;BME280;48717;55.556;37.816;2023-04-27T01:22:38;98696.16;;;9.39;78.04
62655;BME280;48717;55.556;37.816;2023-04-27T01:25:06;98696.09;;;9.43;78.43
62655;BME280;48717;55.556;37.816;2023-04-27T01:27:33;98692.72;;;9.34;78.53
62655;BME280;48717;55.556;37.816;2023-04-27T01:30:02;98709.16;;;9.52;77.97
62655;BME280;48717;55.556;37.816;2023-04-27T01:32:30;98699.47;;;9.52;78.67
62655;BME280;48717;55.556;37.816;2023-04-27T01:34:57;98691.69;;;9.45;78.44
62655;BME280;48717;55.556;37.816;2023-04-27T01:37:25;98710.00;;;9.51;78.46
62655;BME280;48717;55.556;37.816;2023-04-27T01:39:52;98713.50;;;9.53;78.50
62655;BME280;48717;55.556;37.816;2023-04-27T01:42:19;98703.09;;;9.45;79.06
62655;BME280;48717;55.556;37.816;2023-04-27T01:44:47;98718.81;;;9.50;78.97
62655;BME280;48717;55.556;37.816;2023-04-27T01:47:15;98706.69;;;9.39;79.08
62655;BME280;48717;55.556;37.816;2023-04-27T01:49:43;98725.88;;;9.48;78.90
62655;BME280;48717;55.556;37.816;2023-04-27T01:52:10;98715.25;;;9.54;77.99
62655;BME280;48717;55.556;37.816;2023-04-27T01:54:38;98683.66;;;9.54;77.28
62655;BME280;48717;55.556;37.816;2023-04-27T01:57:05;98705.47;;;9.64;77.03
62655;BME280;48717;55.556;37.816;2023-04-27T01:59:32;98714.03;;;9.75;76.49
62655;BME280;48717;55.556;37.816;2023-04-27T02:02:00;98720.06;;;9.82;76.37
62655;BME280;48717;55.556;37.816;2023-04-27T02:04:28;98669.63;;;9.53;75.81
62655;BME280;48717;55.556;37.816;2023-04-27T02:06:57;98710.44;;;9.81;75.48
62655;BME280;48717;55.556;37.816;2023-04-27T02:09:24;98727.88;;;9.90;75.90
62655;BME280;48717;55.556;37.816;2023-04-27T02:11:51;98703.44;;;9.82;75.46
62655;BME280;48717;55.556;37.816;2023-04-27T02:14:18;98728.69;;;9.93;75.23
62655;BME280;48717;55.556;37.816;2023-04-27T02:17:05;98700.84;;;9.77;75.18
62655;BME280;48717;55.556;37.816;2023-04-27T02:19:33;98733.03;;;9.96;74.74
62655;BME280;48717;55.556;37.816;2023-04-27T02:22:00;98733.97;;;9.93;74.58
62655;BME280;48717;55.556;37.816;2023-04-27T02:24:27;98735.84;;;9.85;74.80
62655;BME280;48717;55.556;37.816;2023-04-27T02:26:54;98725.41;;;9.79;74.51
62655;BME280;48717;55.556;37.816;2023-04-27T02:29:22;98742.91;;;9.83;74.48
62655;BME280;48717;55.556;37.816;2023-04-27T02:31:50;98748.22;;;9.80;75.88
62655;BME280;48717;55.556;37.816;2023-04-27T02:34:17;98736.88;;;9.76;75.30
62655;BME280;48717;55.556;37.816;2023-04-27T02:36:46;98739.50;;;9.75;75.68
62655;BME280;48717;55.556;37.816;2023-04-27T02:39:31;98728.22;;;9.66;75.51
62655;BME280;48717;55.556;37.816;2023-04-27T02:41:58;98752.59;;;9.79;75.99
62655;BME280;48717;55.556;37.816;2023-04-27T02:44:25;98750.03;;;9.75;75.95
62655;BME280;48717;55.556;37.816;2023-04-27T02:46:52;98752.75;;;9.69;75.38
62655;BME280;48717;55.556;37.816;2023-04-27T02:49:21;98751.75;;;9.79;75.41
62655;BME280;48717;55.556;37.816;2023-04-27T02:51:49;98746.47;;;9.79;74.62
62655;BME280;48717;55.556;37.816;2023-04-27T02:54:16;98743.59;;;9.95;74.36
62655;BME280;48717;55.556;37.816;2023-04-27T02:56:43;98751.50;;;9.95;73.92
62655;BME280;48717;55.556;37.816;2023-04-27T02:59:10;98767.06;;;10.10;73.39
62655;BME280;48717;55.556;37.816;2023-04-27T03:01:38;98770.50;;;10.15;73.32
62655;BME280;48717;55.556;37.816;2023-04-27T03:04:05;98779.28;;;10.14;74.15
62655;BME280;48717;55.556;37.816;2023-04-27T03:06:32;98778.47;;;10.09;73.73
62655;BME280;48717;55.556;37.816;2023-04-27T03:08:59;98779.38;;;10.08;73.72
62655;BME280;48717;55.556;37.816;2023-04-27T03:11:27;98783.81;;;10.06;74.19
62655;BME280;48717;55.556;37.816;2023-04-27T03:13:56;98791.72;;;10.04;74.63
62655;BME280;48717;55.556;37.816;2023-04-27T03:16:23;98787.41;;;9.99;74.45
62655;BME280;48717;55.556;37.816;2023-04-27T03:18:50;98790.06;;;9.97;74.35
62655;BME280;48717;55.556;37.816;2023-04-27T03:21:17;98769.16;;;9.86;74.45
62655;BME280;48717;55.556;37.816;2023-04-27T03:23:48;98790.88;;;10.02;73.79
62655;BME280;48717;55.556;37.816;2023-04-27T03:26:15;98786.63;;;9.93;74.09
62655;BME280;48717;55.556;37.816;2023-04-27T03:28:42;98803.16;;;10.05;74.46
62655;BME280;48717;55.556;37.816;2023-04-27T03:31:11;98789.13;;;10.03;73.79
62655;BME280;48717;55.556;37.816;2023-04-27T03:33:39;98786.25;;;10.18;73.22
62655;BME280;48717;55.556;37.816;2023-04-27T03:36:07;98793.13;;;10.27;72.78
62655;BME280;48717;55.556;37.816;2023-04-27T03:38:39;98779.13;;;10.24;72.74
62655;BME280;48717;55.556;37.816;2023-04-27T03:41:06;98792.94;;;10.38;73.23
62655;BME280;48717;55.556;37.816;2023-04-27T03:43:34;98799.00;;;10.47;72.63
62655;BME280;48717;55.556;37.816;2023-04-27T03:46:02;98802.44;;;10.49;72.39
62655;BME280;48717;55.556;37.816;2023-04-27T03:48:29;98770.13;;;10.37;71.97
62655;BME280;48717;55.556;37.816;2023-04-27T03:50:56;98799.63;;;10.61;71.58
62655;BME280;48717;55.556;37.816;2023-04-27T03:53:23;98812.59;;;10.74;71.07
62655;BME280;48717;55.556;37.816;2023-04-27T03:58:42;98827.22;;;10.90;70.44
62655;BME280;48717;55.556;37.816;2023-04-27T04:04:09;98830.28;;;11.16;68.83
62655;BME280;48717;55.556;37.816;2023-04-27T04:06:36;98806.56;;;11.13;68.61
62655;BME280;48717;55.556;37.816;2023-04-27T04:09:03;98817.53;;;11.38;68.70
62655;BME280;48717;55.556;37.816;2023-04-27T04:11:31;98830.13;;;11.68;66.95
62655;BME280;48717;55.556;37.816;2023-04-27T04:14:00;98806.56;;;11.98;66.16
62655;BME280;48717;55.556;37.816;2023-04-27T04:16:28;98802.75;;;12.49;65.11
62655;BME280;48717;55.556;37.816;2023-04-27T04:18:56;98825.81;;;13.11;63.93
62655;BME280;48717;55.556;37.816;2023-04-27T04:21:28;98823.63;;;13.58;62.98
62655;BME280;48717;55.556;37.816;2023-04-27T04:23:58;98832.13;;;14.00;61.40
62655;BME280;48717;55.556;37.816;2023-04-27T04:26:25;98809.09;;;14.29;58.80
62655;BME280;48717;55.556;37.816;2023-04-27T04:28:53;98824.09;;;14.57;57.72
62655;BME280;48717;55.556;37.816;2023-04-27T04:31:20;98829.00;;;14.43;57.02
62655;BME280;48717;55.556;37.816;2023-04-27T04:33:48;98827.28;;;14.13;57.83
62655;BME280;48717;55.556;37.816;2023-04-27T04:36:15;98831.22;;;14.57;58.02
62655;BME280;48717;55.556;37.816;2023-04-27T04:38:42;98835.84;;;15.04;56.31
62655;BME280;48717;55.556;37.816;2023-04-27T04:41:09;98799.72;;;15.24;55.52
62655;BME280;48717;55.556;37.816;2023-04-27T04:43:36;98825.63;;;15.43;52.68
62655;BME280;48717;55.556;37.816;2023-04-27T04:46:08;98830.00;;;14.93;52.65
62655;BME280;48717;55.556;37.816;2023-04-27T04:48:36;98820.31;;;14.92;52.71
62655;BME280;48717;55.556;37.816;2023-04-27T04:51:04;98812.19;;;15.22;52.33
62655;BME280;48717;55.556;37.816;2023-04-27T04:53:33;98838.91;;;15.66;50.86
62655;BME280;48717;55.556;37.816;2023-04-27T04:56:10;98834.03;;;16.02;50.55
62655;BME280;48717;55.556;37.816;2023-04-27T04:58:38;98839.63;;;16.40;49.20
62655;BME280;48717;55.556;37.816;2023-04-27T05:01:06;98837.09;;;17.01;48.23
62655;BME280;48717;55.556;37.816;2023-04-27T05:03:33;98802.56;;;17.00;47.36
62655;BME280;48717;55.556;37.816;2023-04-27T05:06:00;98795.75;;;17.34;46.79
62655;BME280;48717;55.556;37.816;2023-04-27T05:08:28;98846.84;;;18.01;45.50
62655;BME280;48717;55.556;37.816;2023-04-27T05:10:55;98858.84;;;18.12;45.13
62655;BME280;48717;55.556;37.816;2023-04-27T05:13:22;98823.25;;;18.13;44.79
62655;BME280;48717;55.556;37.816;2023-04-27T05:15:50;98797.69;;;18.26;44.73
62655;BME280;48717;55.556;37.816;2023-04-27T05:18:18;98851.28;;;18.59;43.47
62655;BME280;48717;55.556;37.816;2023-04-27T05:20:45;98820.03;;;18.78;42.89
62655;BME280;48717;55.556;37.816;2023-04-27T05:23:12;98821.28;;;19.24;41.98
62655;BME280;48717;55.556;37.816;2023-04-27T05:25:39;98831.41;;;19.69;40.16
62655;BME280;48717;55.556;37.816;2023-04-27T05:28:09;98815.56;;;19.98;39.52
62655;BME280;48717;55.556;37.816;2023-04-27T05:30:36;98838.31;;;20.38;38.66
62655;BME280;48717;55.556;37.816;2023-04-27T05:33:04;98850.56;;;20.58;38.39
62655;BME280;48717;55.556;37.816;2023-04-27T05:35:32;98849.16;;;20.67;37.56
62655;BME280;48717;55.556;37.816;2023-04-27T05:37:59;98848.34;;;20.97;37.18
62655;BME280;48717;55.556;37.816;2023-04-27T05:40:27;98851.19;;;20.94;36.62
62655;BME280;48717;55.556;37.816;2023-04-27T05:42:55;98846.53;;;20.81;35.55
62655;BME280;48717;55.556;37.816;2023-04-27T05:45:24;98842.81;;;20.53;36.23
62655;BME280;48717;55.556;37.816;2023-04-27T05:47:52;98851.63;;;19.91;36.29
62655;BME280;48717;55.556;37.816;2023-04-27T05:50:19;98861.16;;;19.45;37.55
62655;BME280;48717;55.556;37.816;2023-04-27T05:52:46;98853.34;;;19.24;38.14
62655;BME280;48717;55.556;37.816;2023-04-27T05:55:14;98867.31;;;18.94;38.65
62655;BME280;48717;55.556;37.816;2023-04-27T05:57:41;98864.88;;;18.89;38.82
62655;BME280;48717;55.556;37.816;2023-04-27T06:00:11;98855.69;;;18.77;39.25
62655;BME280;48717;55.556;37.816;2023-04-27T06:02:38;98857.13;;;18.85;39.71
62655;BME280;48717;55.556;37.816;2023-04-27T06:05:06;98862.94;;;19.28;39.37
62655;BME280;48717;55.556;37.816;2023-04-27T06:07:34;98845.03;;;19.80;37.55
62655;BME280;48717;55.556;37.816;2023-04-27T06:10:04;98864.69;;;19.79;38.00
62655;BME280;48717;55.556;37.816;2023-04-27T06:12:31;98845.78;;;20.00;37.85
62655;BME280;48717;55.556;37.816;2023-04-27T06:14:58;98860.00;;;20.80;35.87
62655;BME280;48717;55.556;37.816;2023-04-27T06:17:25;98859.09;;;21.26;34.66
62655;BME280;48717;55.556;37.816;2023-04-27T06:19:53;98847.28;;;21.74;33.98
62655;BME280;48717;55.556;37.816;2023-04-27T06:22:20;98859.16;;;21.99;32.69
62655;BME280;48717;55.556;37.816;2023-04-27T06:24:47;98850.53;;;20.74;33.89
62655;BME280;48717;55.556;37.816;2023-04-27T06:27:14;98860.22;;;19.80;35.41
62655;BME280;48717;55.556;37.816;2023-04-27T06:29:42;98875.41;;;19.79;37.07
62655;BME280;48717;55.556;37.816;2023-04-27T06:32:13;98871.50;;;20.19;36.61
62655;BME280;48717;55.556;37.816;2023-04-27T06:34:42;98841.19;;;20.81;35.43
62655;BME280;48717;55.556;37.816;2023-04-27T06:37:13;98830.97;;;21.62;33.16
62655;BME280;48717;55.556;37.816;2023-04-27T06:39:48;98787.03;;;22.07;32.21
62655;BME280;48717;55.556;37.816;2023-04-27T06:42:17;98836.13;;;23.05;31.53
62655;BME280;48717;55.556;37.816;2023-04-27T06:44:47;98866.28;;;23.62;29.96
62655;BME280;48717;55.556;37.816;2023-04-27T06:47:14;98853.03;;;23.85;28.31
62655;BME280;48717;55.556;37.816;2023-04-27T06:49:42;98866.03;;;23.91;28.66
62655;BME280;48717;55.556;37.816;2023-04-27T06:52:08;98852.34;;;24.20;28.79
62655;BME280;48717;55.556;37.816;2023-04-27T06:54:36;98874.56;;;23.46;29.99
62655;BME280;48717;55.556;37.816;2023-04-27T06:57:03;98881.56;;;23.49;30.59
62655;BME280;48717;55.556;37.816;2023-04-27T06:59:30;98864.69;;;23.46;29.59
62655;BME280;48717;55.556;37.816;2023-04-27T07:01:57;98874.09;;;23.13;29.91
62655;BME280;48717;55.556;37.816;2023-04-27T07:04:25;98848.31;;;23.24;30.00
62655;BME280;48717;55.556;37.816;2023-04-27T07:06:54;98878.53;;;23.14;30.24
62655;BME280;48717;55.556;37.816;2023-04-27T07:09:25;98861.47;;;22.88;30.75
62655;BME280;48717;55.556;37.816;2023-04-27T07:11:54;98880.91;;;23.32;29.03
62655;BME280;48717;55.556;37.816;2023-04-27T07:14:23;98870.44;;;24.05;28.14
62655;BME280;48717;55.556;37.816;2023-04-27T07:16:50;98861.84;;;23.87;27.59
62655;BME280;48717;55.556;37.816;2023-04-27T07:19:18;98892.00;;;23.92;27.22
62655;BME280;48717;55.556;37.816;2023-04-27T07:21:45;98859.41;;;23.71;27.72
62655;BME280;48717;55.556;37.816;2023-04-27T07:24:12;98871.31;;;23.80;27.16
62655;BME280;48717;55.556;37.816;2023-04-27T07:26:39;98869.44;;;24.19;27.49
62655;BME280;48717;55.556;37.816;2023-04-27T07:29:07;98870.72;;;24.27;27.85
62655;BME280;48717;55.556;37.816;2023-04-27T07:31:53;98865.19;;;24.90;27.02
62655;BME280;48717;55.556;37.816;2023-04-27T07:34:22;98885.53;;;24.45;27.55
62655;BME280;48717;55.556;37.816;2023-04-27T07:36:50;98877.00;;;24.51;27.30
62655;BME280;48717;55.556;37.816;2023-04-27T07:39:20;98878.84;;;24.38;27.35
62655;BME280;48717;55.556;37.816;2023-04-27T07:41:47;98874.91;;;24.80;27.58
62655;BME280;48717;55.556;37.816;2023-04-27T07:44:19;98858.91;;;25.25;26.34
62655;BME280;48717;55.556;37.816;2023-04-27T07:46:47;98887.72;;;24.40;27.46
62655;BME280;48717;55.556;37.816;2023-04-27T07:49:15;98892.09;;;24.04;28.54
62655;BME280;48717;55.556;37.816;2023-04-27T07:51:42;98886.88;;;24.27;28.31
62655;BME280;48717;55.556;37.816;2023-04-27T07:54:09;98883.06;;;24.91;27.90
62655;BME280;48717;55.556;37.816;2023-04-27T07:56:40;98879.00;;;25.21;27.50
62655;BME280;48717;55.556;37.816;2023-04-27T07:59:07;98886.34;;;25.66;26.48
62655;BME280;48717;55.556;37.816;2023-04-27T08:01:35;98886.25;;;24.85;27.73
62655;BME280;48717;55.556;37.816;2023-04-27T08:04:02;98889.09;;;25.42;27.28
62655;BME280;48717;55.556;37.816;2023-04-27T08:06:30;98894.63;;;24.93;28.15
62655;BME280;48717;55.556;37.816;2023-04-27T08:08:58;98883.81;;;25.29;27.91
62655;BME280;48717;55.556;37.816;2023-04-27T08:11:26;98880.22;;;25.87;27.41
62655;BME280;48717;55.556;37.816;2023-04-27T08:13:53;98874.19;;;25.95;26.73
62655;BME280;48717;55.556;37.816;2023-04-27T08:16:20;98856.38;;;24.99;27.80
62655;BME280;48717;55.556;37.816;2023-04-27T08:18:48;98871.59;;;25.00;28.72
62655;BME280;48717;55.556;37.816;2023-04-27T08:21:16;98884.00;;;25.62;26.76
62655;BME280;48717;55.556;37.816;2023-04-27T08:23:43;98861.19;;;26.00;25.57
62655;BME280;48717;55.556;37.816;2023-04-27T08:26:14;98882.31;;;25.95;26.32
62655;BME280;48717;55.556;37.816;2023-04-27T08:28:42;98861.78;;;24.99;27.31
62655;BME280;48717;55.556;37.816;2023-04-27T08:31:09;98892.28;;;24.27;29.24
62655;BME280;48717;55.556;37.816;2023-04-27T08:33:36;98866.03;;;23.91;29.50
62655;BME280;48717;55.556;37.816;2023-04-27T08:36:04;98882.59;;;24.11;29.59
62655;BME280;48717;55.556;37.816;2023-04-27T08:38:33;98874.63;;;24.71;28.83
62655;BME280;48717;55.556;37.816;2023-04-27T08:41:00;98859.97;;;25.70;27.74
62655;BME280;48717;55.556;37.816;2023-04-27T08:43:47;98872.84;;;26.68;26.51
62655;BME280;48717;55.556;37.816;2023-04-27T08:46:21;98876.88;;;25.61;26.56
62655;BME280;48717;55.556;37.816;2023-04-27T08:48:49;98889.53;;;24.64;27.61
62655;BME280;48717;55.556;37.816;2023-04-27T08:51:17;98867.84;;;24.17;28.08
62655;BME280;48717;55.556;37.816;2023-04-27T08:53:50;98878.03;;;24.24;28.11
62655;BME280;48717;55.556;37.816;2023-04-27T08:56:18;98878.56;;;23.66;28.59
62655;BME280;48717;55.556;37.816;2023-04-27T08:58:45;98895.38;;;23.70;29.41
62655;BME280;48717;55.556;37.816;2023-04-27T09:01:13;98897.97;;;24.22;29.39
62655;BME280;48717;55.556;37.816;2023-04-27T09:03:41;98895.31;;;24.09;28.88
62655;BME280;48717;55.556;37.816;2023-04-27T09:06:08;98905.97;;;23.97;28.87
62655;BME280;48717;55.556;37.816;2023-04-27T09:08:48;98907.41;;;23.90;27.91
62655;BME280;48717;55.556;37.816;2023-04-27T09:13:57;98884.25;;;24.38;28.06
62655;BME280;48717;55.556;37.816;2023-04-27T09:16:26;98884.44;;;24.97;27.73
62655;BME280;48717;55.556;37.816;2023-04-27T09:18:56;98883.06;;;24.67;27.66
62655;BME280;48717;55.556;37.816;2023-04-27T09:21:25;98895.28;;;24.35;28.30
62655;BME280;48717;55.556;37.816;2023-04-27T09:23:53;98877.44;;;24.08;29.23
62655;BME280;48717;55.556;37.816;2023-04-27T09:26:23;98890.56;;;24.25;28.60
62655;BME280;48717;55.556;37.816;2023-04-27T09:28:53;98897.44;;;24.30;28.64
62655;BME280;48717;55.556;37.816;2023-04-27T09:31:29;98883.81;;;24.93;27.28
62655;BME280;48717;55.556;37.816;2023-04-27T09:33:56;98882.56;;;24.86;27.31
62655;BME280;48717;55.556;37.816;2023-04-27T09:36:24;98899.78;;;24.34;27.99
62655;BME280;48717;55.556;37.816;2023-04-27T09:38:52;98900.91;;;24.06;28.90
62655;BME280;48717;55.556;37.816;2023-04-27T09:41:20;98880.91;;;23.84;28.91
62655;BME280;48717;55.556;37.816;2023-04-27T09:43:47;98889.09;;;23.95;29.00
62655;BME280;48717;55.556;37.816;2023-04-27T09:46:15;98892.41;;;23.99;28.70
62655;BME280;48717;55.556;37.816;2023-04-27T09:48:42;98893.22;;;24.63;28.72
62655;BME280;48717;55.556;37.816;2023-04-27T09:51:09;98900.06;;;25.16;27.00
62655;BME280;48717;55.556;37.816;2023-04-27T09:53:43;98870.50;;;24.79;27.53
62655;BME280;48717;55.556;37.816;2023-04-27T09:56:25;98896.81;;;24.75;27.26
62655;BME280;48717;55.556;37.816;2023-04-27T09:59:22;98890.38;;;24.03;27.29
62655;BME280;48717;55.556;37.816;2023-04-27T10:01:56;98873.50;;;23.75;28.18
62655;BME280;48717;55.556;37.816;2023-04-27T10:07:25;98872.31;;;23.79;27.90
62655;BME280;48717;55.556;37.816;2023-04-27T10:09:52;98884.72;;;24.81;27.19
62655;BME280;48717;55.556;37.816;2023-04-27T10:17:22;98873.28;;;26.96;23.83
62655;BME280;48717;55.556;37.816;2023-04-27T10:19:56;98865.50;;;26.58;24.10
62655;BME280;48717;55.556;37.816;2023-04-27T10:22:42;98884.59;;;25.42;25.75
62655;BME280;48717;55.556;37.816;2023-04-27T10:25:16;98857.00;;;23.92;27.85
62655;BME280;48717;55.556;37.816;2023-04-27T10:27:53;98896.03;;;23.60;28.84
62655;BME280;48717;55.556;37.816;2023-04-27T10:30:23;98862.34;;;23.01;29.72
62655;BME280;48717;55.556;37.816;2023-04-27T10:32:54;98907.06;;;22.05;31.38
62655;BME280;48717;55.556;37.816;2023-04-27T10:35:55;98900.84;;;21.16;33.02
62655;BME280;48717;55.556;37.816;2023-04-27T10:38:28;98894.13;;;20.61;34.57
62655;BME280;48717;55.556;37.816;2023-04-27T10:41:00;98941.00;;;19.35;44.45
62655;BME280;48717;55.556;37.816;2023-04-27T10:43:30;98920.56;;;17.83;63.75
62655;BME280;48717;55.556;37.816;2023-04-27T10:46:11;98917.66;;;15.44;64.29
62655;BME280;48717;55.556;37.816;2023-04-27T10:48:43;98956.41;;;14.97;69.36
62655;BME280;48717;55.556;37.816;2023-04-27T10:51:14;98968.03;;;14.35;71.37
62655;BME280;48717;55.556;37.816;2023-04-27T10:53:44;98970.03;;;13.97;71.24
62655;BME280;48717;55.556;37.816;2023-04-27T10:56:11;98968.19;;;13.67;64.71
62655;BME280;48717;55.556;37.816;2023-04-27T10:58:38;98952.03;;;13.42;71.24
62655;BME280;48717;55.556;37.816;2023-04-27T11:01:27;98947.69;;;13.74;76.12
62655;BME280;48717;55.556;37.816;2023-04-27T11:03:57;98942.00;;;14.18;79.02
62655;BME280;48717;55.556;37.816;2023-04-27T11:06:25;98953.00;;;15.46;76.97
62655;BME280;48717;55.556;37.816;2023-04-27T11:08:54;98938.13;;;16.83;64.56
62655;BME280;48717;55.556;37.816;2023-04-27T11:11:21;98963.03;;;18.09;59.45
62655;BME280;48717;55.556;37.816;2023-04-27T11:13:50;98935.09;;;18.74;61.18
62655;BME280;48717;55.556;37.816;2023-04-27T11:16:21;98946.88;;;19.42;52.90
62655;BME280;48717;55.556;37.816;2023-04-27T11:18:49;98966.81;;;20.54;50.74
62655;BME280;48717;55.556;37.816;2023-04-27T11:21:19;98935.03;;;21.26;49.60
62655;BME280;48717;55.556;37.816;2023-04-27T11:23:48;98923.16;;;21.76;40.36
62655;BME280;48717;55.556;37.816;2023-04-27T11:26:20;98947.34;;;21.90;41.33
62655;BME280;48717;55.556;37.816;2023-04-27T11:31:37;98940.72;;;21.96;38.39
62655;BME280;48717;55.556;37.816;2023-04-27T11:34:06;98927.00;;;21.86;39.93
62655;BME280;48717;55.556;37.816;2023-04-27T11:36:33;98934.81;;;21.60;40.63
62655;BME280;48717;55.556;37.816;2023-04-27T11:39:02;98941.97;;;21.45;41.27
62655;BME280;48717;55.556;37.816;2023-04-27T11:41:33;98955.56;;;21.87;39.48
62655;BME280;48717;55.556;37.816;2023-04-27T11:44:07;98938.09;;;22.24;41.70
62655;BME280;48717;55.556;37.816;2023-04-27T11:46:35;98942.06;;;22.75;41.69
62655;BME280;48717;55.556;37.816;2023-04-27T11:49:05;98934.03;;;22.60;38.06
62655;BME280;48717;55.556;37.816;2023-04-27T11:51:32;98918.69;;;22.48;37.49
62655;BME280;48717;55.556;37.816;2023-04-27T11:54:04;98931.16;;;22.49;39.07
62655;BME280;48717;55.556;37.816;2023-04-27T11:56:36;98921.75;;;23.11;33.85
62655;BME280;48717;55.556;37.816;2023-04-27T11:59:04;98910.97;;;24.41;31.64
62655;BME280;48717;55.556;37.816;2023-04-27T12:01:32;98885.72;;;25.04;30.23
62655;BME280;48717;55.556;37.816;2023-04-27T12:04:04;98921.19;;;25.81;28.79
62655;BME280;48717;55.556;37.816;2023-04-27T12:06:32;98885.91;;;24.89;28.27
62655;BME280;48717;55.556;37.816;2023-04-27T12:08:59;98901.00;;;24.55;28.13
62655;BME280;48717;55.556;37.816;2023-04-27T12:11:27;98916.31;;;24.17;28.80
62655;BME280;48717;55.556;37.816;2023-04-27T12:13:54;98909.56;;;23.85;30.19
62655;BME280;48717;55.556;37.816;2023-04-27T12:16:22;98883.09;;;23.53;30.17
62655;BME280;48717;55.556;37.816;2023-04-27T12:18:50;98899.22;;;23.40;30.63
62655;BME280;48717;55.556;37.816;2023-04-27T12:21:17;98899.06;;;23.28;31.09
62655;BME280;48717;55.556;37.816;2023-04-27T12:23:45;98877.22;;;23.20;30.99
62655;BME280;48717;55.556;37.816;2023-04-27T12:26:12;98904.59;;;23.79;30.30
62655;BME280;48717;55.556;37.816;2023-04-27T12:28:41;98894.25;;;24.11;28.98
62655;BME280;48717;55.556;37.816;2023-04-27T12:31:13;98890.00;;;25.07;28.51
62655;BME280;48717;55.556;37.816;2023-04-27T12:33:42;98880.34;;;25.86;29.10
62655;BME280;48717;55.556;37.816;2023-04-27T12:36:09;98853.00;;;25.20;27.93
62655;BME280;48717;55.556;37.816;2023-04-27T12:38:36;98875.41;;;25.79;27.07
62655;BME280;48717;55.556;37.816;2023-04-27T12:41:03;98877.06;;;25.35;27.66
62655;BME280;48717;55.556;37.816;2023-04-27T12:43:30;98872.47;;;25.71;26.88
62655;BME280;48717;55.556;37.816;2023-04-27T12:45:58;98828.81;;;25.77;25.91
62655;BME280;48717;55.556;37.816;2023-04-27T12:48:25;98862.66;;;26.27;26.54
62655;BME280;48717;55.556;37.816;2023-04-27T12:50:52;98875.38;;;26.48;25.67
62655;BME280;48717;55.556;37.816;2023-04-27T12:53:19;98871.09;;;26.23;25.08
62655;BME280;48717;55.556;37.816;2023-04-27T12:55:47;98859.72;;;25.73;25.75
62655;BME280;48717;55.556;37.816;2023-04-27T12:58:14;98868.25;;;25.44;25.70
62655;BME280;48717;55.556;37.816;2023-04-27T13:00:42;98879.78;;;25.46;26.32
62655;BME280;48717;55.556;37.816;2023-04-27T13:03:09;98867.34;;;26.02;25.43
62655;BME280;48717;55.556;37.816;2023-04-27T13:05:37;98848.41;;;26.91;24.64
62655;BME280;48717;55.556;37.816;2023-04-27T13:08:04;98875.34;;;27.56;23.73
62655;BME280;48717;55.556;37.816;2023-04-27T13:10:31;98846.50;;;27.45;23.25
62655;BME280;48717;55.556;37.816;2023-04-27T13:12:58;98854.00;;;27.94;23.00
62655;BME280;48717;55.556;37.816;2023-04-27T13:15:26;98854.97;;;27.73;23.40
62655;BME280;48717;55.556;37.816;2023-04-27T13:17:54;98851.81;;;27.78;23.58
62655;BME280;48717;55.556;37.816;2023-04-27T13:20:24;98862.28;;;27.61;23.47